Aérodrome :
LOGIN :

S'inscrire | Disclaimer

   EN    FR    IT 

 










Légende :    VFR   VFR Marginal   IFR   IFR Intensif   IFR Très Intensif
Visi : 
Plafond : 
>= 8 km
>= 3000ft
5 à 8 km
1000 à 3000 ft
1500m à 5 km
500 à 1000 ft
800 à 1500m
200 à 500 ft
< 800m
< 200 ft
Symboles :   Orages  Brouillard  Fortes neiges  Fortes précipitations  Vent > 20 kt
SIGMETs :   Divers  Orages  Givrage  Turbulence  Onde Orograph.  Cendres Volcan.







- Altitude de l'aérodrome : 45 ft
- Code IATA : CEG
- Voir les cartes d'approche


EGNR - Hawarden Chester

DERNIER METAR :
  • 201520Z 23011KT 210V270 9999 FEW022 SCT048 19/08 Q1023

METARs EXPIRÉS :
  • 201450Z 28007KT 240V310 9999 FEW022 SCT046 19/07 Q1023
  • 201420Z 29006KT 250V330 9999 FEW020 SCT046 19/08 Q1023
  • 201350Z 28007KT 240V320 9999 FEW020 SCT040 18/07 Q1023
  • 201320Z 27008KT 240V310 9999 FEW020 SCT040 18/06 Q1023
  • 201250Z 27006KT 220V320 9999 FEW020 SCT040 18/07 Q1022

TAF TAF EGNR
Valide du 20 à 15h jusqu'au 20 à 20h UTC


201403Z 2015/2020 27010KT 9999 SCT035
BECMG 2015/2018 18006KT
PROB30
TEMPO 2017/2020 7000 SHRA BKN014
Pas de NOTAMs connus pour ce terrain.



MET'MAP, la Météo Aéronautique d'un coup d'oeil ! - Copyright ORBIFLY Décembre 2007 - Disclaimer

ORBIFLY MET'MAP TEAM :

Programmation & Développement : Alexandra Zaïnal
Conception & Développement : Baudouin d'Aumeries
Co-Programmation & Développement : Marc-Olivier Méhu
Soutien technique & logistique : Manuel Goepfert

Contact : metmap@orbifly.com




SOURCES & CREDITS :

   NOAA